Time;durP1;ratioP1;P1;durP2;ratioP2;P2;SDS_P1;SDS_P2;PMS_P1;PMS_P2;Temp;Humidity;BMP_temperature;BMP_pressure;BME280_temperature;BME280_humidity;BME280_pressure;Samples;Min_cycle;Max_cycle;Signal;HPM_P1;HPM_P2
2022/10/25 00:01:51;;;;;;;4.35;1.67;;;;;;;19.05;42.79;101985.50;4993574;28;20117;-55
2022/10/25 00:04:18;;;;;;;5.07;1.60;;;;;;;19.30;42.73;101982.53;4993192;28;20029;-55
2022/10/25 00:06:44;;;;;;;6.20;1.73;;;;;;;18.96;43.50;101971.44;4993184;28;20121;-55
2022/10/25 00:09:10;;;;;;;7.88;1.70;;;;;;;18.68;44.62;101972.09;4993510;28;20026;-54
2022/10/25 00:11:36;;;;;;;5.18;1.23;;;;;;;18.47;45.69;101975.31;4993826;28;20031;-55
2022/10/25 00:14:05;;;;;;;10.38;2.08;;;;;;;18.64;46.11;101976.31;4993234;28;20436;-55
2022/10/25 00:16:36;;;;;;;9.85;1.77;;;;;;;18.60;46.23;101975.13;4992976;28;20061;-55
2022/10/25 00:19:02;;;;;;;7.65;1.67;;;;;;;18.53;46.03;101976.28;4996980;28;20036;-55
2022/10/25 00:21:29;;;;;;;5.65;1.55;;;;;;;18.39;45.98;101970.22;4993582;28;20041;-49
2022/10/25 00:23:55;;;;;;;4.32;1.55;;;;;;;18.34;45.81;101962.78;4992811;28;20026;-50
2022/10/25 00:26:21;;;;;;;5.55;1.63;;;;;;;18.23;46.46;101970.88;5004048;28;20470;-54
2022/10/25 00:28:47;;;;;;;6.28;1.73;;;;;;;18.04;47.31;101970.06;4998295;28;20030;-54
2022/10/25 00:31:15;;;;;;;5.53;1.60;;;;;;;18.02;46.91;101964.06;4992719;28;20041;-51
2022/10/25 00:33:43;;;;;;;6.75;2.13;;;;;;;17.79;47.75;101962.06;5003411;28;20022;-52
2022/10/25 00:36:17;;;;;;;7.70;1.80;;;;;;;17.78;47.90;101971.22;5011848;28;20037;-53
2022/10/25 00:38:45;;;;;;;8.45;1.75;;;;;;;17.68;48.55;101961.72;5012399;28;20061;-53
2022/10/25 00:41:13;;;;;;;6.88;2.45;;;;;;;17.67;49.51;101976.31;4995843;28;20057;-54
2022/10/25 00:43:42;;;;;;;6.25;1.80;;;;;;;17.52;50.17;101973.16;4992726;28;20018;-53
2022/10/25 00:46:20;;;;;;;9.48;2.08;;;;;;;17.40;52.01;101980.34;4992486;28;20076;-53
2022/10/25 00:49:18;;;;;;;9.48;2.33;;;;;;;17.12;53.04;101973.53;4992705;28;20034;-53
2022/10/25 00:51:52;;;;;;;8.32;2.10;;;;;;;17.25;53.37;101977.16;4996581;28;20073;-54
2022/10/25 00:54:33;;;;;;;14.52;2.72;;;;;;;16.99;53.48;101973.66;5011896;28;20129;-53
2022/10/25 00:57:07;;;;;;;8.05;2.00;;;;;;;17.03;52.88;101977.56;5011696;28;20081;-54
2022/10/25 00:59:33;;;;;;;10.35;2.33;;;;;;;17.08;52.25;101980.44;5012007;28;20029;-53
2022/10/25 01:02:00;;;;;;;11.95;2.58;;;;;;;16.86;53.51;101977.28;5011955;28;20053;-52
2022/10/25 01:04:29;;;;;;;12.45;2.00;;;;;;;16.86;53.08;101969.16;5011826;28;20034;-53
2022/10/25 01:06:55;;;;;;;11.73;2.30;;;;;;;16.92;52.38;101972.88;5011794;28;20026;-54
2022/10/25 01:09:26;;;;;;;11.32;2.40;;;;;;;16.66;53.39;101963.06;5011304;28;20040;-54
2022/10/25 01:11:52;;;;;;;10.75;2.05;;;;;;;16.88;52.52;101967.09;5011720;28;20501;-54
2022/10/25 01:14:19;;;;;;;8.93;2.00;;;;;;;16.80;52.87;101978.16;5003943;28;20030;-52
2022/10/25 01:17:18;;;;;;;14.30;2.40;;;;;;;16.57;53.25;101967.06;4991759;28;20037;-52
2022/10/25 01:20:03;;;;;;;4.43;1.88;;;;;;;16.55;53.73;101972.72;4993525;28;20463;-52
2022/10/25 01:22:46;;;;;;;8.98;2.20;;;;;;;16.48;53.56;101971.06;5000979;28;20072;-52
2022/10/25 01:25:36;;;;;;;10.25;2.38;;;;;;;16.26;54.07;101963.28;5011787;28;20093;-53
2022/10/25 01:28:32;;;;;;;17.77;2.38;;;;;;;16.34;53.61;101964.94;5011243;28;20117;-53
2022/10/25 01:31:07;;;;;;;8.82;2.13;;;;;;;16.43;53.11;101952.81;5011429;28;20030;-53
2022/10/25 01:33:51;;;;;;;7.60;2.30;;;;;;;16.13;54.22;101955.28;5003162;28;20391;-54
2022/10/25 01:36:32;;;;;;;15.23;1.90;;;;;;;15.95;55.01;101949.75;5002976;28;20033;-55
2022/10/25 01:39:02;;;;;;;10.50;2.20;;;;;;;15.96;55.45;101952.25;5013121;28;20116;-53
2022/10/25 01:41:59;;;;;;;6.70;2.33;;;;;;;15.86;55.88;101951.03;5014846;28;20164;-53
2022/10/25 01:44:43;;;;;;;6.72;2.30;;;;;;;15.94;55.83;101958.91;5017415;28;20026;-54
2022/10/25 01:47:18;;;;;;;7.28;2.33;;;;;;;15.82;56.81;101964.97;5017939;28;20105;-55
2022/10/25 01:49:53;;;;;;;8.07;1.98;;;;;;;15.98;56.69;101977.16;5017969;28;20033;-53
2022/10/25 01:52:23;;;;;;;13.10;2.47;;;;;;;15.81;57.76;101976.78;5005380;28;20065;-54
2022/10/25 01:54:50;;;;;;;9.43;2.25;;;;;;;15.45;59.40;101976.47;4998176;28;20467;-54
2022/10/25 01:57:23;;;;;;;11.95;2.60;;;;;;;15.55;59.15;101971.47;4998129;28;20477;-56
2022/10/25 02:00:07;;;;;;;7.10;2.28;;;;;;;15.54;59.47;101967.91;5007139;28;20032;-55
2022/10/25 02:02:41;;;;;;;11.45;2.53;;;;;;;15.50;60.04;101971.28;5008157;28;20026;-54
2022/10/25 02:05:33;;;;;;;9.05;2.35;;;;;;;15.37;60.81;101973.97;4999300;28;20033;-56
2022/10/25 02:08:11;;;;;;;11.93;2.30;;;;;;;15.47;61.06;101974.38;5005285;28;20040;-55
2022/10/25 02:10:41;;;;;;;11.02;2.55;;;;;;;15.32;62.08;101966.50;5008425;28;20379;-55
2022/10/25 02:13:15;;;;;;;10.43;2.55;;;;;;;15.43;61.80;101968.56;5010492;28;20184;-54
2022/10/25 02:16:22;;;;;;;12.93;3.38;;;;;;;15.16;62.80;101973.19;5013799;28;20025;-54
2022/10/25 02:19:01;;;;;;;10.25;2.72;;;;;;;15.17;63.10;101974.03;4967233;28;20042;-54
2022/10/25 02:21:30;;;;;;;11.27;2.42;;;;;;;15.07;63.25;101984.38;5015476;28;20036;-53
2022/10/25 02:23:58;;;;;;;6.75;2.30;;;;;;;14.95;63.43;101978.78;5015576;28;20049;-55
2022/10/25 02:26:26;;;;;;;12.20;3.58;;;;;;;14.99;63.00;101980.88;5010650;28;20034;-54
2022/10/25 02:28:53;;;;;;;14.10;2.92;;;;;;;15.07;62.58;101985.22;5015178;28;20040;-54
2022/10/25 02:31:22;;;;;;;7.90;2.50;;;;;;;15.10;62.08;101978.56;5017538;28;20092;-54
2022/10/25 02:33:49;;;;;;;12.82;2.50;;;;;;;15.17;61.69;101982.94;5014294;28;20485;-54
2022/10/25 02:36:20;;;;;;;7.78;2.10;;;;;;;15.04;62.03;101986.44;5017209;28;20079;-55
2022/10/25 02:38:48;;;;;;;7.78;2.58;;;;;;;15.11;61.41;101985.63;5017578;28;20046;-55
2022/10/25 02:41:15;;;;;;;6.60;1.55;;;;;;;15.02;61.53;101983.13;5017583;28;20068;-54
2022/10/25 02:43:41;;;;;;;7.05;1.88;;;;;;;15.22;61.53;101996.63;5017380;28;20422;-55
2022/10/25 02:46:10;;;;;;;9.73;2.47;;;;;;;15.09;61.91;101987.69;5015261;28;20026;-56
2022/10/25 02:48:37;;;;;;;6.75;2.17;;;;;;;15.15;62.33;101989.56;5014564;28;20435;-55
2022/10/25 02:51:07;;;;;;;11.02;2.28;;;;;;;15.10;62.75;101992.88;5014031;28;20490;-56
2022/10/25 02:53:34;;;;;;;9.63;2.20;;;;;;;15.11;62.91;101996.44;5014260;28;20037;-56
2022/10/25 02:56:00;;;;;;;7.65;2.55;;;;;;;15.16;63.31;101996.63;5012191;28;20052;-56
2022/10/25 02:58:30;;;;;;;9.68;2.40;;;;;;;15.32;63.26;101996.19;5014128;28;20517;-56
2022/10/25 03:00:56;;;;;;;7.80;2.13;;;;;;;15.30;63.39;101992.88;5009602;28;20054;-55
2022/10/25 03:03:23;;;;;;;8.40;2.28;;;;;;;15.29;63.88;102004.72;5002859;28;20026;-55
2022/10/25 03:05:49;;;;;;;10.48;2.75;;;;;;;15.35;64.02;101984.97;5013490;28;20059;-55
2022/10/25 03:08:15;;;;;;;10.43;2.88;;;;;;;15.37;64.21;101982.91;5009194;28;20106;-55
2022/10/25 03:10:41;;;;;;;10.00;2.67;;;;;;;15.17;65.10;101991.03;5012148;28;20033;-56
2022/10/25 03:13:07;;;;;;;12.20;2.35;;;;;;;15.26;64.95;101989.75;5012662;28;20426;-55
2022/10/25 03:15:34;;;;;;;11.38;2.70;;;;;;;15.09;65.68;101996.59;5011320;28;20068;-55
2022/10/25 03:18:00;;;;;;;11.15;2.45;;;;;;;15.05;66.00;102006.19;5014179;28;20135;-55
2022/10/25 03:20:26;;;;;;;9.45;3.10;;;;;;;15.01;66.14;102004.91;4995383;28;20037;-55
2022/10/25 03:22:52;;;;;;;9.15;2.10;;;;;;;15.33;65.59;102005.97;5013925;28;20371;-55
2022/10/25 03:25:18;;;;;;;5.32;1.90;;;;;;;15.26;65.44;102005.09;5013494;28;20026;-55
2022/10/25 03:27:45;;;;;;;13.82;2.45;;;;;;;15.30;65.33;101991.00;5013761;28;20022;-54
2022/10/25 03:30:13;;;;;;;10.60;3.22;;;;;;;15.23;65.64;102000.16;5013562;28;20034;-55
2022/10/25 03:32:39;;;;;;;15.20;3.20;;;;;;;15.44;65.11;101999.09;5013530;28;20037;-55
2022/10/25 03:35:06;;;;;;;9.98;2.85;;;;;;;15.07;66.10;102001.41;5013194;28;20473;-54
2022/10/25 03:37:32;;;;;;;6.60;2.42;;;;;;;15.23;66.21;102008.25;5013625;28;20037;-57
2022/10/25 03:39:58;;;;;;;18.80;2.95;;;;;;;15.14;66.81;102006.78;5013433;28;20116;-55
2022/10/25 03:42:25;;;;;;;14.02;2.78;;;;;;;15.16;67.28;102000.16;5013114;28;20048;-55
2022/10/25 03:44:52;;;;;;;8.95;2.55;;;;;;;15.11;67.27;102015.31;5012941;28;20109;-56
2022/10/25 03:47:18;;;;;;;12.48;2.53;;;;;;;15.14;67.28;102006.78;5013462;28;20053;-57
2022/10/25 03:49:45;;;;;;;11.75;2.90;;;;;;;15.21;67.67;102003.06;5011191;28;20442;-56
2022/10/25 03:52:11;;;;;;;10.35;2.88;;;;;;;15.08;68.34;102004.91;5009432;28;20046;-57
2022/10/25 03:54:37;;;;;;;10.10;2.10;;;;;;;15.20;68.33;101998.69;5011759;28;20037;-56
2022/10/25 03:57:04;;;;;;;8.93;2.50;;;;;;;15.22;68.28;102009.28;5010866;28;20474;-56
2022/10/25 03:59:30;;;;;;;9.10;2.72;;;;;;;15.12;68.96;102008.88;5010769;28;20084;-57
2022/10/25 04:01:56;;;;;;;11.52;2.47;;;;;;;15.08;69.43;102016.53;5012798;28;20402;-55
2022/10/25 04:04:22;;;;;;;11.55;3.33;;;;;;;15.15;69.62;102013.81;5011757;28;20041;-55
2022/10/25 04:06:48;;;;;;;10.52;3.40;;;;;;;15.24;69.16;102017.97;5010822;28;20037;-56
2022/10/25 04:09:15;;;;;;;14.07;3.50;;;;;;;15.25;69.03;102025.03;5009707;28;20036;-57
2022/10/25 04:11:41;;;;;;;14.93;4.22;;;;;;;15.39;68.54;102018.59;5012881;28;20067;-56
2022/10/25 04:14:07;;;;;;;13.15;3.40;;;;;;;15.07;70.03;102022.13;5012153;28;20026;-56
2022/10/25 04:16:33;;;;;;;8.98;2.72;;;;;;;15.03;69.96;102022.53;5012843;28;20026;-55
2022/10/25 04:18:59;;;;;;;12.18;3.45;;;;;;;15.18;68.69;102026.91;5010995;28;20060;-55
2022/10/25 04:21:26;;;;;;;10.50;3.20;;;;;;;15.19;67.75;102026.69;5011463;28;20036;-55
2022/10/25 04:23:52;;;;;;;11.43;2.72;;;;;;;15.15;67.60;102027.31;5010618;28;20068;-55
2022/10/25 04:26:19;;;;;;;11.57;3.22;;;;;;;15.23;67.79;102022.56;5010746;28;20348;-56
2022/10/25 04:28:53;;;;;;;10.15;2.92;;;;;;;15.08;69.55;102024.63;5010864;28;20217;-55
2022/10/25 04:31:20;;;;;;;13.82;2.88;;;;;;;15.10;70.34;102029.78;5012138;28;20135;-56
2022/10/25 04:33:54;;;;;;;11.80;2.78;;;;;;;14.85;71.71;102029.59;5010256;28;20030;-55
2022/10/25 04:36:21;;;;;;;15.00;3.00;;;;;;;15.01;71.31;102024.63;5007996;28;20025;-55
2022/10/25 04:38:48;;;;;;;11.65;2.67;;;;;;;15.04;70.92;102034.16;5009889;28;20025;-55
2022/10/25 04:41:14;;;;;;;13.15;3.10;;;;;;;14.95;71.58;102036.22;5011422;28;20381;-55
2022/10/25 04:43:41;;;;;;;17.15;3.75;;;;;;;15.04;71.53;102040.38;5011026;28;20026;-55
2022/10/25 04:46:07;;;;;;;13.95;2.78;;;;;;;15.09;71.68;102041.63;5009517;28;20030;-55
2022/10/25 04:48:36;;;;;;;12.63;2.85;;;;;;;15.03;71.76;102041.41;5010285;28;20093;-55
2022/10/25 04:51:04;;;;;;;14.35;3.65;;;;;;;14.96;72.21;102045.97;5008659;28;20050;-55
2022/10/25 04:53:30;;;;;;;11.60;3.10;;;;;;;15.05;71.55;102047.44;5004675;28;20040;-56
2022/10/25 04:56:01;;;;;;;16.80;3.22;;;;;;;15.24;71.63;102032.31;5001323;28;20113;-56
2022/10/25 04:58:28;;;;;;;12.82;2.80;;;;;;;14.94;73.52;102031.06;5006195;28;20037;-55
2022/10/25 05:01:00;;;;;;;11.95;3.03;;;;;;;14.93;73.88;102035.59;5001299;28;20430;-55
2022/10/25 05:03:27;;;;;;;12.73;2.92;;;;;;;14.86;73.70;102037.47;4993727;28;20387;-55
2022/10/25 05:05:53;;;;;;;9.43;3.45;;;;;;;14.72;72.66;102027.72;5001480;28;20029;-56
2022/10/25 05:08:19;;;;;;;12.35;3.38;;;;;;;14.98;69.58;102030.41;5009847;28;20018;-56
2022/10/25 05:10:55;;;;;;;11.52;3.40;;;;;;;14.81;68.65;102029.16;5009635;28;20029;-55
2022/10/25 05:13:21;;;;;;;8.23;2.70;;;;;;;14.38;65.54;102028.59;5008406;28;20042;-56
2022/10/25 05:15:55;;;;;;;9.57;2.35;;;;;;;14.26;65.82;102034.56;5002951;28;20033;-55
2022/10/25 05:18:21;;;;;;;11.60;2.35;;;;;;;14.31;66.18;102036.66;5010199;28;20053;-56
2022/10/25 05:20:52;;;;;;;5.40;2.20;;;;;;;14.51;64.44;102034.06;5009561;28;20029;-55
2022/10/25 05:23:18;;;;;;;8.05;2.80;;;;;;;14.42;64.44;102046.84;5009707;28;20108;-54
2022/10/25 05:25:44;;;;;;;6.60;1.98;;;;;;;14.42;64.17;102063.00;5010285;28;20032;-56
2022/10/25 05:28:11;;;;;;;9.82;2.17;;;;;;;14.27;63.06;102054.28;5009421;28;20356;-56
2022/10/25 05:30:43;;;;;;;8.18;2.08;;;;;;;14.23;62.42;102059.22;5009555;28;20145;-56
2022/10/25 05:33:09;;;;;;;5.70;2.00;;;;;;;14.23;61.77;102066.47;4994138;28;20041;-55
2022/10/25 05:35:36;;;;;;;6.15;1.85;;;;;;;14.19;61.38;102066.03;4996561;28;20018;-55
2022/10/25 05:38:02;;;;;;;4.43;1.50;;;;;;;14.19;60.91;102065.19;5006176;28;20037;-55
2022/10/25 05:40:28;;;;;;;4.47;1.58;;;;;;;14.27;59.59;102055.09;5000597;28;20036;-55
2022/10/25 05:42:54;;;;;;;5.30;1.60;;;;;;;14.44;56.53;102055.56;5009514;28;20018;-55
2022/10/25 05:45:20;;;;;;;5.97;1.80;;;;;;;14.22;57.21;102059.44;5000545;28;20031;-56
2022/10/25 05:47:46;;;;;;;5.05;1.80;;;;;;;14.15;57.02;102066.63;4991365;28;20081;-56
2022/10/25 05:50:13;;;;;;;5.68;1.85;;;;;;;14.10;57.03;102072.63;5009921;28;20068;-56
2022/10/25 05:52:43;;;;;;;8.38;1.83;;;;;;;14.14;56.26;102067.66;5009774;28;20080;-55
2022/10/25 05:55:09;;;;;;;10.18;2.50;;;;;;;14.31;55.47;102070.84;5008692;28;20041;-56
2022/10/25 05:57:35;;;;;;;8.32;2.25;;;;;;;14.24;56.38;102082.41;5003795;28;20034;-55
2022/10/25 06:00:03;;;;;;;7.13;2.22;;;;;;;14.15;57.33;102078.22;5009625;28;20025;-55
2022/10/25 06:02:30;;;;;;;7.35;2.20;;;;;;;14.21;58.09;102071.19;5008173;28;20044;-55
2022/10/25 06:04:56;;;;;;;9.02;2.70;;;;;;;14.30;58.09;102075.41;5009520;28;20034;-55
2022/10/25 06:07:22;;;;;;;7.63;2.63;;;;;;;14.34;58.54;102079.34;5008774;28;20317;-56
2022/10/25 06:09:48;;;;;;;8.82;2.67;;;;;;;14.05;59.49;102085.00;5010136;28;20026;-56
2022/10/25 06:12:14;;;;;;;8.45;2.40;;;;;;;14.18;59.58;102082.38;5009220;28;20108;-55
2022/10/25 06:14:40;;;;;;;11.85;3.38;;;;;;;14.19;59.30;102087.56;5009787;28;20487;-56
2022/10/25 06:17:07;;;;;;;11.77;3.17;;;;;;;14.10;59.56;102079.84;5009165;28;20105;-55
2022/10/25 06:19:33;;;;;;;10.68;3.20;;;;;;;14.18;59.38;102072.44;5009371;28;20041;-55
2022/10/25 06:22:00;;;;;;;9.15;2.67;;;;;;;14.29;59.27;102079.13;5010784;28;20033;-55
2022/10/25 06:24:26;;;;;;;11.18;3.22;;;;;;;14.23;59.06;102083.44;5014503;28;20100;-55
2022/10/25 06:26:53;;;;;;;6.57;3.20;;;;;;;14.02;59.59;102080.03;5013596;28;20037;-55
2022/10/25 06:29:19;;;;;;;10.27;2.80;;;;;;;14.26;59.11;102079.50;5013364;28;20038;-55
2022/10/25 06:31:45;;;;;;;10.50;2.75;;;;;;;14.28;59.05;102072.09;5012488;28;20069;-55
2022/10/25 06:34:11;;;;;;;11.00;2.83;;;;;;;14.16;59.78;102081.78;5012805;28;20038;-55
2022/10/25 06:36:37;;;;;;;10.30;3.08;;;;;;;14.20;60.15;102080.31;5011247;28;20386;-55
2022/10/25 06:39:03;;;;;;;9.13;3.08;;;;;;;14.17;60.95;102083.44;5012938;28;20032;-55
2022/10/25 06:41:30;;;;;;;5.75;2.75;;;;;;;14.17;61.19;102078.88;5014565;28;20479;-55
2022/10/25 06:43:59;;;;;;;9.52;2.85;;;;;;;14.21;61.77;102087.34;5013332;28;20114;-55
2022/10/25 06:46:28;;;;;;;12.10;3.50;;;;;;;14.03;62.89;102084.38;5011346;28;20080;-55
2022/10/25 06:48:56;;;;;;;8.48;3.25;;;;;;;14.20;62.49;102070.38;5012873;28;20109;-54
2022/10/25 06:51:24;;;;;;;6.85;3.35;;;;;;;14.20;63.11;102078.44;5014225;28;20057;-56
2022/10/25 06:53:58;;;;;;;10.27;4.00;;;;;;;14.16;63.67;102079.06;5012688;28;20026;-55
2022/10/25 06:56:26;;;;;;;9.60;3.58;;;;;;;14.12;64.01;102075.13;5013950;28;20034;-55
2022/10/25 06:58:52;;;;;;;11.95;3.67;;;;;;;14.04;65.01;102077.94;5013035;28;20038;-56
2022/10/25 07:01:20;;;;;;;9.20;3.67;;;;;;;14.22;64.51;102078.28;5012691;28;20042;-55
2022/10/25 07:03:49;;;;;;;9.27;2.70;;;;;;;14.27;64.26;102073.13;5014155;28;20065;-59
2022/10/25 07:06:18;;;;;;;10.07;3.03;;;;;;;14.31;64.18;102070.84;5013095;28;20418;-55
2022/10/25 07:08:46;;;;;;;7.97;3.30;;;;;;;14.25;64.49;102072.47;5014248;28;20425;-54
2022/10/25 07:11:17;;;;;;;7.80;2.38;;;;;;;14.29;64.29;102075.59;5012159;28;20057;-55
2022/10/25 07:13:44;;;;;;;7.93;2.50;;;;;;;14.37;64.37;102075.41;5012656;28;20026;-55
2022/10/25 07:16:13;;;;;;;7.78;2.80;;;;;;;14.39;64.05;102068.81;5013691;28;20505;-55
2022/10/25 07:18:40;;;;;;;12.75;2.55;;;;;;;14.41;64.57;102064.06;5012662;28;20061;-55
2022/10/25 07:21:12;;;;;;;10.27;2.42;;;;;;;14.17;65.27;102072.66;5013836;28;20169;-56
2022/10/25 07:23:41;;;;;;;12.18;2.70;;;;;;;14.13;66.81;102063.31;5012164;28;20034;-55
2022/10/25 07:26:13;;;;;;;7.75;2.63;;;;;;;14.06;66.97;102062.44;4996238;28;20022;-55
2022/10/25 07:28:41;;;;;;;11.68;2.40;;;;;;;14.13;66.87;102063.31;5012369;28;20053;-55
2022/10/25 07:31:10;;;;;;;8.73;2.70;;;;;;;14.17;66.46;102072.66;5012455;28;20037;-55
2022/10/25 07:33:36;;;;;;;9.82;2.65;;;;;;;14.08;66.27;102057.69;5011595;28;20157;-55
2022/10/25 07:36:04;;;;;;;7.78;2.40;;;;;;;14.05;66.65;102066.16;4993690;28;20034;-55
2022/10/25 07:38:30;;;;;;;11.18;3.15;;;;;;;14.09;66.50;102054.78;5010586;28;20033;-55
2022/10/25 07:40:59;;;;;;;8.13;2.17;;;;;;;14.18;66.71;102052.78;5011488;28;20080;-55
2022/10/25 07:43:26;;;;;;;9.15;2.40;;;;;;;14.09;67.06;102067.41;5011288;28;20141;-55
2022/10/25 07:45:54;;;;;;;13.23;2.97;;;;;;;14.14;66.77;102065.78;5010884;28;20036;-56
2022/10/25 07:48:20;;;;;;;8.20;2.22;;;;;;;14.13;66.96;102069.53;5011004;28;20037;-56
2022/10/25 07:50:47;;;;;;;10.85;3.20;;;;;;;14.04;67.49;102068.00;5012993;28;20046;-55
2022/10/25 07:53:13;;;;;;;10.75;2.80;;;;;;;14.27;67.49;102071.25;5012423;28;20026;-56
2022/10/25 07:55:39;;;;;;;9.70;3.10;;;;;;;14.18;68.24;102068.94;5011424;28;20026;-55
2022/10/25 07:58:08;;;;;;;9.68;2.72;;;;;;;14.14;69.14;102060.41;5010618;28;20022;-54
2022/10/25 08:00:36;;;;;;;8.90;2.42;;;;;;;14.06;69.65;102063.28;5010936;28;20032;-56
2022/10/25 08:03:03;;;;;;;6.85;2.47;;;;;;;13.94;70.44;102059.50;5010273;28;20069;-56
2022/10/25 08:05:29;;;;;;;8.05;2.85;;;;;;;13.86;71.18;102067.72;5010748;28;20068;-55
2022/10/25 08:07:55;;;;;;;11.95;4.05;;;;;;;14.12;70.78;102054.41;5009766;28;20467;-55
2022/10/25 08:10:21;;;;;;;10.77;3.00;;;;;;;14.08;70.78;102058.50;5012958;28;20033;-56
2022/10/25 08:12:49;;;;;;;7.88;3.03;;;;;;;13.92;71.08;102045.38;5010738;28;20052;-56
2022/10/25 08:15:16;;;;;;;11.25;3.03;;;;;;;13.89;71.00;102049.31;5010902;28;20364;-55
2022/10/25 08:17:42;;;;;;;13.95;3.65;;;;;;;13.90;70.46;102053.66;5010193;28;20037;-56
2022/10/25 08:20:09;;;;;;;13.93;3.10;;;;;;;13.95;70.32;102053.06;5011154;28;20119;-55
2022/10/25 08:22:35;;;;;;;11.25;2.97;;;;;;;13.88;71.24;102052.19;5012660;28;20160;-56
2022/10/25 08:25:03;;;;;;;13.13;2.95;;;;;;;13.86;71.05;102054.25;5012396;28;20026;-56
2022/10/25 08:27:30;;;;;;;11.43;3.10;;;;;;;13.72;71.91;102046.09;4995156;28;20053;-56
2022/10/25 08:29:56;;;;;;;8.68;3.58;;;;;;;13.82;71.56;102043.03;5012034;28;20030;-55
2022/10/25 08:32:23;;;;;;;12.27;2.80;;;;;;;13.73;72.08;102045.06;5010198;28;20048;-56
2022/10/25 08:34:49;;;;;;;11.07;3.75;;;;;;;13.87;71.79;102048.66;4992785;28;20056;-56
2022/10/25 08:37:15;;;;;;;10.52;2.90;;;;;;;13.89;71.40;102052.00;5002920;28;20048;-55
2022/10/25 08:39:42;;;;;;;10.35;2.60;;;;;;;13.80;70.93;102055.88;5003261;28;20025;-55
2022/10/25 08:42:21;;;;;;;8.45;2.45;;;;;;;13.95;70.47;102051.22;4992873;28;20030;-56
2022/10/25 08:45:28;;;;;;;12.05;2.70;;;;;;;13.87;70.52;102040.59;4991976;28;20027;-55
2022/10/25 08:47:57;;;;;;;13.57;2.53;;;;;;;13.73;71.20;102039.69;4933072;29;20059;-56
2022/10/25 08:50:32;;;;;;;6.63;2.47;;;;;;;13.62;71.67;102040.25;4995684;28;20388;-55
2022/10/25 08:53:03;;;;;;;10.85;2.97;;;;;;;13.68;71.84;102038.63;5010743;28;20080;-55
2022/10/25 08:55:34;;;;;;;10.77;2.92;;;;;;;13.40;72.64;102039.47;5012131;28;20771;-55
2022/10/25 08:58:03;;;;;;;7.78;2.60;;;;;;;13.56;71.90;102040.19;5007937;28;20029;-56
2022/10/25 09:00:36;;;;;;;11.50;2.90;;;;;;;13.68;71.41;102033.25;5010974;28;20036;-55
2022/10/25 09:03:03;;;;;;;11.60;2.53;;;;;;;13.56;71.11;102024.06;5010595;28;20061;-55
2022/10/25 09:05:59;;;;;;;9.32;2.70;;;;;;;13.57;70.97;102023.03;5010132;28;20033;-55
2022/10/25 09:08:58;;;;;;;6.55;2.50;;;;;;;13.69;70.60;102022.28;5010188;28;20483;-55
2022/10/25 09:12:09;;;;;;;7.00;2.42;;;;;;;13.61;70.92;102011.69;5010299;28;20076;-55
2022/10/25 09:15:02;;;;;;;8.50;2.60;;;;;;;13.63;71.04;102020.38;5005904;28;20500;-56
2022/10/25 09:17:43;;;;;;;7.70;2.35;;;;;;;13.33;71.96;102009.00;5009503;28;20502;-56
2022/10/25 09:20:24;;;;;;;8.60;2.60;;;;;;;13.38;72.29;102014.63;5011101;28;20060;-56
2022/10/25 09:22:59;;;;;;;10.57;2.55;;;;;;;13.43;71.87;102008.63;5010032;28;20026;-55
2022/10/25 09:25:54;;;;;;;12.57;2.63;;;;;;;13.50;71.87;102017.59;5010224;28;20449;-55
2022/10/25 09:28:50;;;;;;;7.20;2.75;;;;;;;13.24;72.14;102015.53;4986017;28;20073;-55
2022/10/25 09:31:22;;;;;;;8.60;2.63;;;;;;;13.45;71.56;102015.50;5009339;28;20065;-55
2022/10/25 09:33:56;;;;;;;7.18;2.75;;;;;;;13.26;71.62;102013.47;4999517;28;20037;-55
2022/10/25 09:36:24;;;;;;;10.07;3.23;;;;;;;13.34;71.38;102002.59;5009590;28;20513;-55
2022/10/25 09:38:57;;;;;;;9.43;3.13;;;;;;;13.44;71.20;101995.03;5010871;28;20279;-56
2022/10/25 09:41:30;;;;;;;8.63;2.55;;;;;;;13.45;71.20;101996.69;5009948;28;20046;-55
2022/10/25 09:44:10;;;;;;;8.10;2.25;;;;;;;13.47;71.14;101991.91;5010024;28;20106;-55
2022/10/25 09:46:51;;;;;;;9.15;2.83;;;;;;;13.44;71.52;102007.63;5009804;28;20467;-55
2022/10/25 09:49:41;;;;;;;6.97;2.50;;;;;;;13.22;72.98;101993.41;5006388;28;20048;-55
2022/10/25 09:52:26;;;;;;;10.52;2.78;;;;;;;13.33;72.95;101998.25;5009316;28;20053;-56
2022/10/25 09:55:10;;;;;;;7.65;2.58;;;;;;;13.34;73.04;101991.84;5008171;28;20037;-54
2022/10/25 09:57:36;;;;;;;7.50;2.50;;;;;;;13.44;72.80;101995.03;5014288;28;20453;-55
2022/10/25 10:00:03;;;;;;;10.80;2.47;;;;;;;13.22;73.57;101990.72;5012621;28;20615;-55
2022/10/25 10:02:30;;;;;;;7.00;2.80;;;;;;;13.36;73.53;101992.47;5010302;28;20402;-55
2022/10/25 10:04:56;;;;;;;7.38;2.63;;;;;;;13.27;74.22;101988.28;5013634;28;20391;-55
2022/10/25 10:07:31;;;;;;;12.43;2.63;;;;;;;13.17;74.72;101998.50;5012563;28;20030;-55
2022/10/25 10:10:06;;;;;;;7.93;2.65;;;;;;;13.38;73.87;101998.50;5013745;28;20072;-56
2022/10/25 10:12:42;;;;;;;7.32;2.80;;;;;;;13.39;74.21;101991.25;5013171;28;20057;-55
2022/10/25 10:15:27;;;;;;;7.03;2.47;;;;;;;13.22;74.48;101996.09;5013614;28;20549;-55
2022/10/25 10:18:29;;;;;;;5.60;2.35;;;;;;;13.12;74.69;101982.97;5013162;28;20049;-55
2022/10/25 10:21:07;;;;;;;9.48;3.10;;;;;;;13.16;74.47;101991.47;4948358;29;20039;-56
2022/10/25 10:23:55;;;;;;;7.90;2.90;;;;;;;13.09;74.44;101995.94;4996182;28;20042;-56
2022/10/25 10:26:32;;;;;;;7.50;3.03;;;;;;;13.03;74.40;101994.03;5014598;28;20033;-56
2022/10/25 10:29:04;;;;;;;13.50;3.17;;;;;;;13.14;75.14;101983.59;5013613;28;20509;-55
2022/10/25 10:32:05;;;;;;;14.15;3.50;;;;;;;13.31;75.39;101988.69;5011719;28;20041;-55
2022/10/25 10:34:38;;;;;;;11.13;3.08;;;;;;;13.18;76.33;101984.03;5008972;28;20052;-55
2022/10/25 10:37:16;;;;;;;8.02;3.00;;;;;;;13.11;76.60;101972.41;5012493;28;20038;-55
2022/10/25 10:40:21;;;;;;;6.88;2.75;;;;;;;13.05;77.42;101978.56;5012770;28;20030;-55
2022/10/25 10:42:47;;;;;;;6.10;2.70;;;;;;;12.99;79.53;101972.09;5007851;28;20041;-55
2022/10/25 10:45:16;;;;;;;10.52;3.60;;;;;;;13.14;79.06;101977.38;5012760;28;20072;-55
2022/10/25 10:47:49;;;;;;;15.73;3.30;;;;;;;13.08;80.44;101983.53;5013792;28;20030;-55
2022/10/25 10:50:24;;;;;;;9.18;3.30;;;;;;;12.93;81.93;101979.06;5013361;28;20394;-55
2022/10/25 10:52:53;;;;;;;12.48;4.13;;;;;;;13.07;82.01;101976.50;5011763;28;20370;-56
2022/10/25 10:55:23;;;;;;;11.60;4.55;;;;;;;13.11;82.67;101972.41;4998792;28;20037;-56
2022/10/25 10:57:52;;;;;;;12.85;4.95;;;;;;;13.19;83.35;101966.88;5006078;28;20034;-56
2022/10/25 11:00:24;;;;;;;11.98;5.55;;;;;;;13.25;83.73;101966.13;5012814;28;20685;-56
2022/10/25 11:02:50;;;;;;;9.73;4.93;;;;;;;13.36;83.82;101970.13;5012440;28;20390;-56
2022/10/25 11:05:28;;;;;;;13.90;5.85;;;;;;;13.34;83.51;101970.31;5013946;28;20507;-56
2022/10/25 11:08:08;;;;;;;12.77;5.75;;;;;;;13.40;83.90;101971.41;5011488;28;20025;-56
2022/10/25 11:10:35;;;;;;;16.08;5.50;;;;;;;13.50;84.05;101971.06;5011927;28;20188;-56
2022/10/25 11:13:13;;;;;;;9.43;5.10;;;;;;;13.53;83.45;101970.66;5011274;28;20249;-56
2022/10/25 11:15:53;;;;;;;13.60;4.70;;;;;;;13.47;83.69;101966.88;5006890;23;20065;-56
2022/10/25 11:18:32;;;;;;;9.98;5.15;;;;;;;13.41;84.07;101965.81;5012016;28;20428;-56
2022/10/25 11:21:30;;;;;;;9.23;4.63;;;;;;;13.74;83.20;101957.09;5010063;28;20030;-56
2022/10/25 11:24:04;;;;;;;13.25;5.88;;;;;;;13.81;83.10;101952.56;5010811;28;20033;-56
2022/10/25 11:27:08;;;;;;;12.55;5.78;;;;;;;13.88;82.35;101953.47;5012211;28;20045;-56
2022/10/25 11:30:02;;;;;;;16.13;5.93;;;;;;;13.74;83.53;101952.56;4932495;29;20130;-56
2022/10/25 11:32:28;;;;;;;14.60;5.60;;;;;;;13.86;82.78;101949.28;5011398;28;20542;-56
2022/10/25 11:35:00;;;;;;;13.85;5.57;;;;;;;13.86;82.56;101946.59;5013101;28;20038;-56
2022/10/25 11:37:41;;;;;;;14.43;6.55;;;;;;;13.90;82.20;101940.63;5007320;28;20033;-56
2022/10/25 11:40:40;;;;;;;10.52;5.45;;;;;;;13.90;82.22;101939.78;5006618;28;20430;-56
2022/10/25 11:43:24;;;;;;;18.10;7.13;;;;;;;13.92;82.38;101952.00;4983779;28;20038;-56